Latest Weather Observations for Renmark Airport

IDS60801

Issued at 12:05 pm CDT Saturday 1 November 2014 (issued every 30 minutes, with the page automatically refreshed every 10 minutes)

About weather observations | Map of weather stations | Latest weather observations for SA | Other Formats
Station Details ID: 024048 Name: RENMARK AERO Lat: -34.20 Lon: 140.68 Height: 31.5 m
Data from the previous 72 hours. | See also: Recent months at Renmark Airport
Date/Time
CDT
Temp
°C
App
Temp
°C
Dew
Point
Rel
Hum
%
Delta-T
°C
Wind Press
QNH
hPa
Press
MSL
hPa
Rain
since 9 am
mm
Dir
 
Spd
km/h
Gust
km/h
Spd
kts
Gust
kts
01/12:00pm 18.6 10.5 1.2 31 7.8 SW 33 57 18 31 1014.2 1014.1 0.0
01/11:30am 17.8 10.2 4.0 40 6.5 SSW 33 54 18 29 1014.2 1014.1 0.0
01/11:27am 18.2 10.6 3.7 38 6.8 SSW 33 54 18 29 1014.2 1014.1 0.0
01/11:19am 19.1 11.3 2.9 34 7.5 SSW 33 39 18 21 1014.2 1014.1 0.0
01/11:00am 18.9 9.8 1.9 32 7.7 WSW 39 54 21 29 1013.8 1013.7 0.0
01/10:40am 18.4 10.1 2.3 34 7.4 SW 35 54 19 29 1013.8 1013.7 0.0
01/10:30am 17.3 8.9 3.9 41 6.3 SW 37 50 20 27 1013.8 1013.7 0.0
01/10:11am 17.5 9.0 3.4 39 6.5 SW 37 56 20 30 1013.6 1013.6 0.0
01/10:00am 16.2 8.3 4.6 46 5.5 SW 35 52 19 28 1013.6 1013.6 0.0
01/09:42am 17.0 10.5 4.7 44 5.8 SW 28 46 15 25 1013.3 1013.3 0.0
01/09:30am 16.3 9.0 4.7 46 5.5 SW 32 46 17 25 1013.3 1013.3 0.0
01/09:00am 15.9 8.7 6.1 52 4.8 SW 33 52 18 28 1012.7 1012.7 -
01/08:30am 14.3 7.9 7.1 62 3.5 SW 30 48 16 26 1012.4 1012.4 -
01/08:00am 14.1 8.8 9.7 75 2.3 SW 28 39 15 21 1011.8 1011.8 -
01/07:30am 13.3 9.0 10.8 85 1.3 SSW 24 33 13 18 1011.0 1011.0 -
01/07:00am 13.2 7.9 12.4 95 0.4 SSW 32 52 17 28 1010.2 1010.2 -
01/06:59am 13.1 7.7 12.3 95 0.4 SW 32 52 17 28 1010.1 1010.1 -
01/06:30am 13.5 9.6 13.3 99 0.1 SW 26 35 14 19 1009.3 1009.3 -
01/06:00am 15.2 12.0 11.4 78 2.0 SW 19 30 10 16 1008.4 1008.4 -
01/05:30am 15.3 13.7 11.5 78 2.0 SW 11 15 6 8 1007.5 1007.5 -
01/05:00am 14.9 12.6 11.7 81 1.7 SW 15 20 8 11 1006.9 1006.9 -
01/04:30am 15.2 12.8 12.5 84 1.5 SW 17 30 9 16 1006.6 1006.6 -
01/04:00am 14.9 11.7 13.1 89 1.0 SW 22 33 12 18 1006.4 1006.4 -
01/03:30am 15.6 13.1 12.4 81 1.8 SW 17 24 9 13 1006.0 1006.0 -
01/03:00am 15.6 12.6 12.4 81 1.8 SW 20 28 11 15 1005.7 1005.7 -
01/02:30am 15.6 12.8 12.5 82 1.7 SW 19 26 10 14 1005.1 1005.1 -
01/01:30am 15.8 15.2 13.6 87 1.2 WNW 9 13 5 7 1005.5 1005.5 0.2
01/01:00am 16.0 15.8 13.5 85 1.4 W 7 11 4 6 1005.9 1005.9 0.2
01/12:30am 17.2 14.2 11.9 71 2.9 WSW 19 30 10 16 1005.5 1005.5 0.0
01/12:00am 17.8 14.5 10.9 64 3.7 SSW 19 28 10 15 1004.2 1004.2 0.0
 
Date/Time
CDT
Temp
°C
App
Temp
°C
Dew
Point
Rel
Hum
%
Delta-T
°C
Wind Press
QNH
hPa
Press
MSL
hPa
Rain
since 9 am
mm
Dir
 
Spd
km/h
Gust
km/h
Spd
kts
Gust
kts
31/11:30pm 17.8 13.6 11.1 65 3.6 SSW 24 39 13 21 1004.2 1004.2 0.0
31/11:00pm 17.8 12.8 12.3 70 3.0 SSW 30 41 16 22 1003.5 1003.5 0.0
31/10:30pm 18.2 10.8 12.6 70 3.1 SSW 43 69 23 37 1003.6 1003.6 0.0
31/10:00pm 20.7 13.0 11.6 56 5.1 SSW 43 65 23 35 1002.4 1002.4 0.0
31/09:37pm 24.9 18.9 7.1 32 9.3 SSW 28 52 15 28 1001.1 1001.1 0.0
31/09:30pm 25.2 19.9 6.9 31 9.6 S 24 37 13 20 1000.7 1000.6 0.0
31/09:00pm 26.1 19.9 6.2 28 10.4 SW 28 43 15 23 1001.5 1001.5 0.0
31/08:30pm 27.7 20.1 4.1 22 12.0 SW 33 48 18 26 1000.4 1000.3 0.0
31/08:13pm 29.5 22.1 4.2 20 13.0 SSW 32 50 17 27 998.6 998.5 0.0
31/08:11pm 30.9 22.4 3.0 17 14.1 WSW 37 52 20 28 998.7 998.6 0.0
31/08:05pm 32.5 24.3 0.6 13 15.7 W 33 59 18 32 998.9 998.8 0.0
31/08:00pm 32.6 28.0 -4.3 9 16.7 NW 11 13 6 7 998.0 997.9 0.0
31/07:30pm 34.0 28.9 -4.9 8 17.7 NNW 13 19 7 10 997.7 997.6 0.0
31/07:00pm 34.8 28.3 -6.0 7 18.4 NNW 20 28 11 15 997.7 997.6 0.0
31/06:30pm 35.5 27.5 -5.5 7 18.7 NNW 28 39 15 21 997.7 997.6 0.0
31/06:00pm 35.8 28.6 -5.3 7 18.9 NW 24 43 13 23 998.0 997.9 0.0
31/05:30pm 36.1 27.2 -7.1 6 19.3 NNW 32 48 17 26 998.2 998.1 0.0
31/05:27pm 36.2 28.1 -7.0 6 19.2 NNW 28 48 15 26 998.3 998.2 0.0
31/05:00pm 36.2 28.1 -7.0 6 19.2 NNW 28 41 15 22 998.6 998.5 0.0
31/04:37pm 36.3 27.2 -7.0 6 19.3 NW 33 56 18 30 998.9 998.8 0.0
31/04:30pm 36.6 26.8 -6.8 6 19.6 NW 37 50 20 27 998.9 998.8 0.0
31/04:00pm 37.6 29.4 -8.4 5 20.3 NNW 28 48 15 26 999.6 999.5 0.0
31/03:46pm 37.0 28.9 -6.5 6 19.6 NNW 28 46 15 25 999.9 999.8 0.0
31/03:30pm 36.3 26.5 -7.0 6 19.4 NNW 37 54 20 29 1000.4 1000.3 0.0
31/03:18pm 36.5 27.4 -6.8 6 19.4 NW 33 52 18 28 1000.6 1000.5 0.0
31/03:00pm 36.2 25.4 -5.0 7 19.0 NW 43 56 23 30 1001.1 1001.1 0.0
31/02:30pm 37.2 28.2 -6.3 6 19.8 NW 33 54 18 29 1001.5 1001.5 0.0
31/02:06pm 35.9 26.0 -7.2 6 19.1 NW 37 56 20 30 1002.1 1002.1 0.0
31/02:00pm 37.3 27.9 -6.3 6 19.8 NW 35 48 19 26 1002.2 1002.2 0.0
31/01:36pm 36.2 27.1 -7.0 6 19.2 NW 33 52 18 28 1002.6 1002.6 0.0
31/01:30pm 36.2 26.4 -7.0 6 19.3 NW 37 50 20 27 1002.7 1002.7 0.0
31/01:02pm 35.6 27.6 -5.5 7 18.7 NNW 28 50 15 27 1003.5 1003.5 0.0
31/01:00pm 34.6 26.7 -4.4 8 17.9 NNW 28 37 15 20 1003.5 1003.5 0.0
31/12:30pm 33.7 25.4 -5.1 8 17.5 NW 30 39 16 21 1004.1 1004.1 0.0
31/12:00pm 32.3 25.1 -1.9 11 16.1 N 26 37 14 20 1004.7 1004.7 0.0
31/11:30am 32.2 24.8 -0.8 12 15.9 N 28 37 15 20 1005.0 1005.0 0.0
31/11:00am 30.9 23.5 -0.7 13 15.0 N 28 35 15 19 1005.4 1005.4 0.0
31/10:30am 30.0 23.0 -0.4 14 14.5 N 26 35 14 19 1005.7 1005.7 0.0
31/10:00am 28.7 22.4 1.3 17 13.3 NNE 24 33 13 18 1006.1 1006.1 0.0
31/09:30am 27.4 21.9 1.8 19 12.4 NE 20 28 11 15 1006.7 1006.7 0.0
31/09:00am 25.0 19.9 0.5 20 11.4 NE 17 24 9 13 1007.3 1007.3 0.0
31/08:30am 24.0 18.2 -0.3 20 11.1 NE 20 28 11 15 1007.8 1007.8 0.0
31/08:00am 21.0 17.3 2.3 29 8.7 NE 11 15 6 8 1008.0 1008.0 0.0
31/07:30am 19.5 15.4 2.4 32 7.9 ENE 13 17 7 9 1008.1 1008.1 0.0
31/07:00am 16.4 12.8 2.8 40 6.2 NE 11 13 6 7 1008.2 1008.2 0.0
31/06:30am 15.7 12.7 1.8 39 6.2 NE 7 9 4 5 1008.5 1008.5 0.0
31/06:00am 16.1 13.0 1.4 37 6.5 E 7 9 4 5 1008.6 1008.6 0.0
31/05:30am 16.2 12.7 1.5 37 6.5 ENE 9 11 5 6 1008.6 1008.6 0.0
31/05:00am 15.7 13.9 1.4 38 6.3 CALM 0 0 0 0 1008.8 1008.8 0.0
31/04:30am 16.3 12.8 1.2 36 6.6 ESE 9 11 5 6 1009.0 1009.0 0.0
31/04:00am 17.0 13.5 1.0 34 7.0 ESE 9 11 5 6 1009.0 1009.0 0.0
31/03:30am 17.5 13.6 1.1 33 7.3 ESE 11 13 6 7 1009.1 1009.1 0.0
31/03:00am 17.1 13.9 0.7 33 7.2 ESE 7 11 4 6 1009.4 1009.4 0.0
31/02:30am 16.7 13.4 0.4 33 7.1 SE 7 9 4 5 1009.2 1009.2 0.0
31/02:00am 15.3 11.7 0.3 36 6.4 SE 9 11 5 6 1009.5 1009.5 0.0
31/01:30am 14.6 12.5 -1.1 34 6.5 CALM 0 6 0 3 1010.2 1010.2 0.0
31/01:00am 15.0 11.8 -0.7 34 6.5 SSE 6 6 3 3 1010.7 1010.7 0.0
31/12:30am 17.7 14.9 -0.5 29 7.8 ESE 4 7 2 4 1010.9 1010.9 0.0
31/12:00am 19.1 14.5 -0.8 26 8.6 SE 13 15 7 8 1010.9 1010.9 0.0
 
Date/Time
CDT
Temp
°C
App
Temp
°C
Dew
Point
Rel
Hum
%
Delta-T
°C
Wind Press
QNH
hPa
Press
MSL
hPa
Rain
since 9 am
mm
Dir
 
Spd
km/h
Gust
km/h
Spd
kts
Gust
kts
30/11:30pm 17.6 13.8 -0.6 29 7.8 SE 9 13 5 7 1011.2 1011.2 0.0
30/11:00pm 17.4 14.2 -0.3 30 7.6 SE 6 7 3 4 1011.3 1011.3 0.0
30/10:30pm 16.6 14.4 -1.5 29 7.5 CALM 0 0 0 0 1011.4 1011.4 0.0
30/10:00pm 18.5 16.0 -1.3 26 8.4 SSE 2 7 1 4 1011.6 1011.6 0.0
30/09:30pm 20.9 17.0 -1.6 22 9.7 SE 9 11 5 6 1011.5 1011.5 0.0
30/09:00pm 22.7 18.1 -0.7 21 10.4 SSE 13 17 7 9 1011.2 1011.2 0.0
30/08:30pm 23.0 18.4 -1.1 20 10.7 SE 13 15 7 8 1011.0 1011.0 0.0
30/08:00pm 23.8 19.5 -1.9 18 11.3 SE 11 11 6 6 1010.8 1010.8 0.0
30/07:30pm 26.6 22.0 -1.3 16 12.7 SSE 13 15 7 8 1010.8 1010.8 0.0
30/07:00pm 28.7 24.2 -0.5 15 13.7 S 13 17 7 9 1010.7 1010.7 0.0
30/06:30pm 29.5 24.7 -2.9 12 14.7 SSW 13 19 7 10 1010.7 1010.7 0.0
30/06:00pm 30.2 25.4 -2.3 12 15.0 SW 13 20 7 11 1010.6 1010.6 0.0
30/05:30pm 31.0 25.8 -2.9 11 15.5 SSW 15 24 8 13 1010.8 1010.8 0.0
30/05:00pm 30.4 25.4 -1.1 13 14.8 SW 15 24 8 13 1010.9 1010.9 0.0
30/04:30pm 30.7 26.3 0.2 14 14.7 SW 13 28 7 15 1011.2 1011.2 0.0
30/04:00pm 29.8 24.4 1.3 16 13.9 WSW 19 28 10 15 1011.4 1011.4 0.0
30/03:30pm 29.1 25.0 2.4 18 13.2 W 13 26 7 14 1011.7 1011.7 0.0
30/03:00pm 29.3 25.8 3.3 19 13.1 WNW 11 17 6 9 1012.1 1012.1 0.0
30/02:30pm 29.2 25.4 3.9 20 12.9 WNW 13 28 7 15 1012.6 1012.6 0.0
30/02:00pm 28.0 24.7 4.3 22 12.0 WSW 11 17 6 9 1013.1 1013.1 0.0
30/01:30pm 27.3 24.1 5.0 24 11.4 WSW 11 19 6 10 1013.5 1013.5 0.0
30/01:00pm 26.5 21.9 5.5 26 10.8 W 19 24 10 13 1014.1 1014.1 0.0
30/12:30pm 25.3 22.8 6.5 30 9.8 ENE 9 17 5 9 1014.4 1014.4 0.0
30/12:00pm 23.3 21.4 7.4 36 8.3 WSW 7 15 4 8 1014.9 1014.9 0.0
30/11:30am 22.9 20.7 7.8 38 7.9 W 9 13 5 7 1015.6 1015.5 0.0
30/11:00am 21.4 18.9 8.3 43 6.9 SSE 11 19 6 10 1016.1 1016.0 0.0
30/10:30am 20.5 18.4 8.2 45 6.4 S 9 20 5 11 1016.5 1016.4 0.0
30/10:00am 19.5 16.7 8.5 49 5.7 SSW 13 19 7 10 1016.7 1016.6 0.0
30/09:30am 18.2 16.2 8.5 53 5.0 SSE 9 17 5 9 1016.8 1016.7 0.0
30/09:00am 17.8 14.6 8.6 55 4.7 SSE 15 20 8 11 1016.9 1016.8 0.0
30/08:30am 16.4 13.3 8.9 61 3.9 S 15 20 8 11 1016.8 1016.7 0.0
30/08:00am 15.0 11.6 9.1 68 3.0 SE 17 20 9 11 1016.6 1016.5 0.0
30/07:30am 13.8 10.9 9.5 75 2.2 SSE 15 20 8 11 1016.5 1016.4 0.0
30/07:00am 12.3 9.3 9.1 81 1.6 S 15 20 8 11 1016.7 1016.6 0.0
30/06:30am 11.3 9.0 8.9 85 1.2 S 11 15 6 8 1016.3 1016.2 0.0
30/06:00am 11.1 8.3 8.5 84 1.3 S 13 15 7 8 1015.9 1015.8 0.0
30/05:30am 10.9 9.0 7.6 80 1.6 S 7 9 4 5 1015.6 1015.5 0.0
30/05:00am 11.6 9.8 8.1 79 1.7 S 7 11 4 6 1015.7 1015.6 0.0
30/04:30am 11.9 10.1 7.8 76 2.0 S 7 9 4 5 1015.6 1015.5 0.0
30/04:00am 12.7 10.2 8.2 74 2.2 S 11 15 6 8 1015.7 1015.6 0.0
30/03:30am 13.0 10.9 8.1 72 2.4 SSW 9 15 5 8 1015.9 1015.8 0.0
30/03:00am 13.5 11.4 8.1 70 2.7 SSW 9 13 5 7 1015.7 1015.6 0.0
30/02:30am 14.0 11.5 8.2 68 2.9 SSW 11 15 6 8 1016.0 1015.9 0.0
30/02:00am 14.6 12.1 8.1 65 3.3 S 11 15 6 8 1016.0 1015.9 0.0
30/01:30am 15.2 12.3 8.2 63 3.5 S 13 17 7 9 1016.4 1016.3 0.0
30/01:00am 15.5 13.0 8.3 62 3.6 S 11 17 6 9 1016.5 1016.4 0.0
30/12:30am 16.3 13.5 8.5 60 4.0 S 13 19 7 10 1016.4 1016.3 0.0
30/12:00am 16.2 13.7 8.2 59 4.0 SSW 11 15 6 8 1016.6 1016.5 0.0
 
Date/Time
CDT
Temp
°C
App
Temp
°C
Dew
Point
Rel
Hum
%
Delta-T
°C
Wind Press
QNH
hPa
Press
MSL
hPa
Rain
since 9 am
mm
Dir
 
Spd
km/h
Gust
km/h
Spd
kts
Gust
kts
29/11:30pm 17.2 15.5 8.4 56 4.5 SSW 7 13 4 7 1016.4 1016.3 0.0
29/11:00pm 18.3 15.1 8.6 53 5.0 S 15 24 8 13 1016.5 1016.4 0.0
29/10:30pm 19.4 14.9 8.4 49 5.7 S 22 32 12 17 1016.2 1016.1 0.0
29/10:00pm 20.7 16.5 8.4 45 6.4 SSW 20 30 11 16 1016.3 1016.2 0.0
29/09:30pm 21.9 17.9 8.1 41 7.2 SSW 19 28 10 15 1015.8 1015.7 0.0
29/09:00pm 22.5 17.9 5.4 33 8.6 SSW 19 26 10 14 1015.1 1015.1 0.0
29/08:30pm 21.5 20.0 3.2 30 8.7 CALM 0 0 0 0 1014.5 1014.5 0.0
29/08:00pm 22.8 21.3 2.8 27 9.5 CALM 0 6 0 3 1014.4 1014.4 0.0
29/07:30pm 25.0 21.8 3.0 24 10.7 SSW 9 11 5 6 1014.3 1014.3 0.0
29/07:00pm 26.6 22.9 2.5 21 11.8 SW 11 15 6 8 1014.3 1014.3 0.0
29/06:30pm 27.5 22.6 1.8 19 12.5 WSW 17 22 9 12 1014.2 1014.2 0.0
29/06:00pm 28.6 24.1 2.0 18 13.0 SW 15 20 8 11 1014.2 1014.2 0.0
29/05:30pm 28.6 23.2 1.2 17 13.2 WSW 19 26 10 14 1014.2 1014.2 0.0
29/05:00pm 28.7 23.0 0.4 16 13.5 W 20 24 11 13 1014.3 1014.3 0.0
29/04:30pm 28.5 24.6 1.1 17 13.2 SW 11 19 6 10 1014.6 1014.6 0.0
29/04:00pm 28.1 23.9 1.6 18 12.9 SW 13 19 7 10 1014.9 1014.9 0.0
29/03:30pm 27.9 24.0 1.4 18 12.8 W 11 22 6 12 1015.2 1015.2 0.0
29/03:00pm 26.7 22.5 1.9 20 12.0 W 13 28 7 15 1015.9 1015.8 0.0
29/02:30pm 26.0 20.7 2.0 21 11.5 WNW 19 24 10 13 1016.5 1016.4 0.0
29/02:00pm 25.2 21.3 3.2 24 10.8 NNW 13 24 7 13 1017.1 1017.0 0.0
29/01:30pm 23.9 20.2 4.3 28 9.7 WNW 13 22 7 12 1017.5 1017.4 0.0
29/01:00pm 23.0 20.4 5.9 33 8.7 N 9 19 5 10 1018.0 1017.9 0.0
29/12:30pm 22.1 19.0 7.1 38 7.7 NW 13 22 7 12 1018.7 1018.6 0.0

Other Formats:

Comma delimited format used in spreadsheet applications
http://www.bom.gov.au/fwo/IDS60801/IDS60801.95687.axf

JavaScript Object Notation format (JSON) in row-major order
http://www.bom.gov.au/fwo/IDS60801/IDS60801.95687.json